sensor_id;sensor_type;location;lat;lon;timestamp;P1;durP1;ratioP1;P2;durP2;ratioP2
72053;SDS011;59918;51.280;7.950;2022-10-22T00:00:05;10.02;;;7.50;;
72053;SDS011;59918;51.280;7.950;2022-10-22T00:02:35;11.48;;;6.95;;
72053;SDS011;59918;51.280;7.950;2022-10-22T00:05:01;10.50;;;7.55;;
72053;SDS011;59918;51.280;7.950;2022-10-22T00:07:29;16.65;;;7.97;;
72053;SDS011;59918;51.280;7.950;2022-10-22T00:09:55;13.93;;;7.88;;
72053;SDS011;59918;51.280;7.950;2022-10-22T00:12:22;12.98;;;8.15;;
72053;SDS011;59918;51.280;7.950;2022-10-22T00:14:51;10.98;;;7.43;;
72053;SDS011;59918;51.280;7.950;2022-10-22T00:17:16;11.60;;;7.80;;
72053;SDS011;59918;51.280;7.950;2022-10-22T00:19:41;16.75;;;8.30;;
72053;SDS011;59918;51.280;7.950;2022-10-22T00:22:07;11.98;;;7.75;;
72053;SDS011;59918;51.280;7.950;2022-10-22T00:24:33;10.35;;;7.75;;
72053;SDS011;59918;51.280;7.950;2022-10-22T00:26:59;12.25;;;7.63;;
72053;SDS011;59918;51.280;7.950;2022-10-22T00:29:24;16.50;;;7.63;;
72053;SDS011;59918;51.280;7.950;2022-10-22T00:31:50;21.88;;;8.05;;
72053;SDS011;59918;51.280;7.950;2022-10-22T00:34:18;10.77;;;7.43;;
72053;SDS011;59918;51.280;7.950;2022-10-22T00:36:46;16.58;;;8.45;;
72053;SDS011;59918;51.280;7.950;2022-10-22T00:39:16;13.30;;;8.60;;
72053;SDS011;59918;51.280;7.950;2022-10-22T00:41:43;17.38;;;9.18;;
72053;SDS011;59918;51.280;7.950;2022-10-22T00:47:15;16.98;;;8.65;;
72053;SDS011;59918;51.280;7.950;2022-10-22T00:49:42;15.60;;;8.27;;
72053;SDS011;59918;51.280;7.950;2022-10-22T00:52:10;12.40;;;8.77;;
72053;SDS011;59918;51.280;7.950;2022-10-22T00:54:37;15.68;;;9.13;;
72053;SDS011;59918;51.280;7.950;2022-10-22T00:57:03;14.20;;;8.85;;
72053;SDS011;59918;51.280;7.950;2022-10-22T00:59:28;12.23;;;9.38;;
72053;SDS011;59918;51.280;7.950;2022-10-22T01:01:54;14.70;;;9.50;;
72053;SDS011;59918;51.280;7.950;2022-10-22T01:04:19;15.50;;;9.48;;
72053;SDS011;59918;51.280;7.950;2022-10-22T01:06:45;17.63;;;9.32;;
72053;SDS011;59918;51.280;7.950;2022-10-22T01:09:15;12.57;;;9.13;;
72053;SDS011;59918;51.280;7.950;2022-10-22T01:17:24;15.82;;;8.75;;
72053;SDS011;59918;51.280;7.950;2022-10-22T01:25:46;12.93;;;8.43;;
72053;SDS011;59918;51.280;7.950;2022-10-22T01:31:28;15.13;;;8.57;;
72053;SDS011;59918;51.280;7.950;2022-10-22T01:34:03;14.30;;;8.85;;
72053;SDS011;59918;51.280;7.950;2022-10-22T01:36:32;16.85;;;8.93;;
72053;SDS011;59918;51.280;7.950;2022-10-22T01:38:59;16.70;;;9.68;;
72053;SDS011;59918;51.280;7.950;2022-10-22T01:41:27;11.90;;;9.00;;
72053;SDS011;59918;51.280;7.950;2022-10-22T01:43:53;12.68;;;9.00;;
72053;SDS011;59918;51.280;7.950;2022-10-22T01:46:18;18.15;;;9.18;;
72053;SDS011;59918;51.280;7.950;2022-10-22T02:07:33;14.93;;;9.50;;
72053;SDS011;59918;51.280;7.950;2022-10-22T02:10:04;16.55;;;9.98;;
72053;SDS011;59918;51.280;7.950;2022-10-22T02:12:31;19.88;;;10.48;;
72053;SDS011;59918;51.280;7.950;2022-10-22T02:15:01;20.35;;;10.40;;
72053;SDS011;59918;51.280;7.950;2022-10-22T02:17:29;20.10;;;10.10;;
72053;SDS011;59918;51.280;7.950;2022-10-22T02:20:03;19.75;;;10.68;;
72053;SDS011;59918;51.280;7.950;2022-10-22T02:22:32;18.23;;;11.02;;
72053;SDS011;59918;51.280;7.950;2022-10-22T02:24:58;17.48;;;10.73;;
72053;SDS011;59918;51.280;7.950;2022-10-22T02:30:17;18.85;;;9.88;;
72053;SDS011;59918;51.280;7.950;2022-10-22T02:35:18;18.08;;;10.95;;
72053;SDS011;59918;51.280;7.950;2022-10-22T02:37:46;19.02;;;10.00;;
72053;SDS011;59918;51.280;7.950;2022-10-22T02:40:12;20.35;;;10.05;;
72053;SDS011;59918;51.280;7.950;2022-10-22T02:42:40;20.65;;;9.75;;
72053;SDS011;59918;51.280;7.950;2022-10-22T02:45:06;17.50;;;9.48;;
72053;SDS011;59918;51.280;7.950;2022-10-22T02:47:32;18.80;;;9.38;;
72053;SDS011;59918;51.280;7.950;2022-10-22T02:49:57;18.45;;;10.52;;
72053;SDS011;59918;51.280;7.950;2022-10-22T02:52:22;17.42;;;9.65;;
72053;SDS011;59918;51.280;7.950;2022-10-22T02:54:48;19.65;;;10.30;;
72053;SDS011;59918;51.280;7.950;2022-10-22T02:57:13;19.30;;;10.30;;
72053;SDS011;59918;51.280;7.950;2022-10-22T02:59:39;17.50;;;10.85;;
72053;SDS011;59918;51.280;7.950;2022-10-22T03:02:04;21.83;;;11.18;;
72053;SDS011;59918;51.280;7.950;2022-10-22T03:04:29;19.10;;;10.77;;
72053;SDS011;59918;51.280;7.950;2022-10-22T03:06:54;18.13;;;10.07;;
72053;SDS011;59918;51.280;7.950;2022-10-22T03:09:20;21.63;;;10.82;;
72053;SDS011;59918;51.280;7.950;2022-10-22T03:11:45;23.98;;;10.40;;
72053;SDS011;59918;51.280;7.950;2022-10-22T03:14:10;20.92;;;10.18;;
72053;SDS011;59918;51.280;7.950;2022-10-22T03:16:36;21.83;;;10.85;;
72053;SDS011;59918;51.280;7.950;2022-10-22T03:19:01;17.92;;;9.82;;
72053;SDS011;59918;51.280;7.950;2022-10-22T03:24:00;24.90;;;12.18;;
72053;SDS011;59918;51.280;7.950;2022-10-22T03:26:29;23.05;;;10.93;;
72053;SDS011;59918;51.280;7.950;2022-10-22T03:28:56;24.23;;;11.60;;
72053;SDS011;59918;51.280;7.950;2022-10-22T03:31:21;21.40;;;11.57;;
72053;SDS011;59918;51.280;7.950;2022-10-22T03:33:50;22.48;;;11.00;;
72053;SDS011;59918;51.280;7.950;2022-10-22T03:36:15;23.27;;;12.15;;
72053;SDS011;59918;51.280;7.950;2022-10-22T03:38:40;16.25;;;10.95;;
72053;SDS011;59918;51.280;7.950;2022-10-22T03:41:05;19.92;;;11.13;;
72053;SDS011;59918;51.280;7.950;2022-10-22T03:43:32;18.50;;;10.43;;
72053;SDS011;59918;51.280;7.950;2022-10-22T03:45:59;17.27;;;10.85;;
72053;SDS011;59918;51.280;7.950;2022-10-22T03:48:24;26.35;;;11.27;;
72053;SDS011;59918;51.280;7.950;2022-10-22T03:50:52;19.90;;;11.40;;
72053;SDS011;59918;51.280;7.950;2022-10-22T03:53:18;26.05;;;11.63;;
72053;SDS011;59918;51.280;7.950;2022-10-22T03:55:43;19.73;;;11.65;;
72053;SDS011;59918;51.280;7.950;2022-10-22T03:58:08;27.10;;;12.15;;
72053;SDS011;59918;51.280;7.950;2022-10-22T04:00:34;22.67;;;12.25;;
72053;SDS011;59918;51.280;7.950;2022-10-22T04:03:02;19.35;;;11.63;;
72053;SDS011;59918;51.280;7.950;2022-10-22T04:05:27;24.45;;;12.07;;
72053;SDS011;59918;51.280;7.950;2022-10-22T04:07:55;19.40;;;11.80;;
72053;SDS011;59918;51.280;7.950;2022-10-22T04:10:20;23.98;;;12.70;;
72053;SDS011;59918;51.280;7.950;2022-10-22T04:12:46;27.20;;;13.57;;
72053;SDS011;59918;51.280;7.950;2022-10-22T04:15:12;20.20;;;12.50;;
72053;SDS011;59918;51.280;7.950;2022-10-22T04:17:41;22.92;;;12.48;;
72053;SDS011;59918;51.280;7.950;2022-10-22T04:20:06;21.52;;;12.13;;
72053;SDS011;59918;51.280;7.950;2022-10-22T04:22:32;24.75;;;13.00;;
72053;SDS011;59918;51.280;7.950;2022-10-22T04:24:58;26.50;;;12.80;;
72053;SDS011;59918;51.280;7.950;2022-10-22T04:27:23;25.35;;;12.13;;
72053;SDS011;59918;51.280;7.950;2022-10-22T04:29:49;20.58;;;12.60;;
72053;SDS011;59918;51.280;7.950;2022-10-22T04:32:14;25.63;;;13.43;;
72053;SDS011;59918;51.280;7.950;2022-10-22T04:34:39;21.60;;;12.50;;
72053;SDS011;59918;51.280;7.950;2022-10-22T04:37:04;17.30;;;11.13;;
72053;SDS011;59918;51.280;7.950;2022-10-22T04:39:29;17.23;;;11.10;;
72053;SDS011;59918;51.280;7.950;2022-10-22T04:41:55;16.15;;;10.70;;
72053;SDS011;59918;51.280;7.950;2022-10-22T04:44:20;21.85;;;10.68;;
72053;SDS011;59918;51.280;7.950;2022-10-22T04:46:45;20.02;;;10.75;;
72053;SDS011;59918;51.280;7.950;2022-10-22T04:49:13;16.05;;;10.40;;
72053;SDS011;59918;51.280;7.950;2022-10-22T04:51:38;17.85;;;11.00;;
72053;SDS011;59918;51.280;7.950;2022-10-22T04:54:04;15.70;;;9.95;;
72053;SDS011;59918;51.280;7.950;2022-10-22T04:56:30;20.48;;;10.70;;
72053;SDS011;59918;51.280;7.950;2022-10-22T04:58:56;17.30;;;10.98;;
72053;SDS011;59918;51.280;7.950;2022-10-22T05:01:27;17.98;;;9.48;;
72053;SDS011;59918;51.280;7.950;2022-10-22T05:03:55;22.33;;;9.77;;
72053;SDS011;59918;51.280;7.950;2022-10-22T05:06:22;14.07;;;9.02;;
72053;SDS011;59918;51.280;7.950;2022-10-22T05:08:52;17.63;;;9.70;;
72053;SDS011;59918;51.280;7.950;2022-10-22T05:11:19;16.77;;;9.00;;
72053;SDS011;59918;51.280;7.950;2022-10-22T05:13:46;14.02;;;8.82;;
72053;SDS011;59918;51.280;7.950;2022-10-22T05:16:12;13.27;;;9.60;;
72053;SDS011;59918;51.280;7.950;2022-10-22T05:18:39;14.95;;;8.00;;
72053;SDS011;59918;51.280;7.950;2022-10-22T05:21:12;13.55;;;8.82;;
72053;SDS011;59918;51.280;7.950;2022-10-22T05:23:39;16.05;;;8.93;;
72053;SDS011;59918;51.280;7.950;2022-10-22T05:26:05;17.42;;;8.95;;
72053;SDS011;59918;51.280;7.950;2022-10-22T05:28:32;13.20;;;8.63;;
72053;SDS011;59918;51.280;7.950;2022-10-22T05:30:59;12.75;;;8.60;;
72053;SDS011;59918;51.280;7.950;2022-10-22T05:33:26;15.07;;;8.13;;
72053;SDS011;59918;51.280;7.950;2022-10-22T05:35:55;12.35;;;7.28;;
72053;SDS011;59918;51.280;7.950;2022-10-22T05:38:20;15.52;;;7.20;;
72053;SDS011;59918;51.280;7.950;2022-10-22T05:40:46;12.63;;;8.48;;
72053;SDS011;59918;51.280;7.950;2022-10-22T05:43:12;10.98;;;8.13;;
72053;SDS011;59918;51.280;7.950;2022-10-22T05:45:40;12.60;;;7.60;;
72053;SDS011;59918;51.280;7.950;2022-10-22T05:48:06;9.68;;;7.20;;
72053;SDS011;59918;51.280;7.950;2022-10-22T05:50:34;13.02;;;8.25;;
72053;SDS011;59918;51.280;7.950;2022-10-22T05:53:03;11.93;;;7.15;;
72053;SDS011;59918;51.280;7.950;2022-10-22T05:55:29;15.02;;;7.55;;
72053;SDS011;59918;51.280;7.950;2022-10-22T05:57:58;8.32;;;6.13;;
72053;SDS011;59918;51.280;7.950;2022-10-22T06:00:26;10.65;;;6.97;;
72053;SDS011;59918;51.280;7.950;2022-10-22T06:02:51;10.35;;;6.50;;
72053;SDS011;59918;51.280;7.950;2022-10-22T06:05:19;8.70;;;6.03;;
72053;SDS011;59918;51.280;7.950;2022-10-22T06:07:44;16.77;;;6.55;;
72053;SDS011;59918;51.280;7.950;2022-10-22T06:10:13;8.35;;;6.30;;
72053;SDS011;59918;51.280;7.950;2022-10-22T06:12:40;10.18;;;5.90;;
72053;SDS011;59918;51.280;7.950;2022-10-22T06:15:06;8.13;;;6.22;;
72053;SDS011;59918;51.280;7.950;2022-10-22T06:17:31;7.22;;;6.32;;
72053;SDS011;59918;51.280;7.950;2022-10-22T06:19:57;10.40;;;6.18;;
72053;SDS011;59918;51.280;7.950;2022-10-22T06:22:22;9.02;;;5.72;;
72053;SDS011;59918;51.280;7.950;2022-10-22T06:24:50;7.50;;;6.25;;
72053;SDS011;59918;51.280;7.950;2022-10-22T06:27:16;14.25;;;6.32;;
72053;SDS011;59918;51.280;7.950;2022-10-22T06:29:41;13.43;;;6.28;;
72053;SDS011;59918;51.280;7.950;2022-10-22T06:32:06;9.48;;;6.00;;
72053;SDS011;59918;51.280;7.950;2022-10-22T06:34:31;9.52;;;6.18;;
72053;SDS011;59918;51.280;7.950;2022-10-22T06:36:59;8.55;;;6.05;;
72053;SDS011;59918;51.280;7.950;2022-10-22T06:39:24;10.82;;;6.80;;
72053;SDS011;59918;51.280;7.950;2022-10-22T06:41:49;7.72;;;6.20;;
72053;SDS011;59918;51.280;7.950;2022-10-22T06:44:15;10.40;;;7.30;;
72053;SDS011;59918;51.280;7.950;2022-10-22T06:46:41;6.82;;;6.10;;
72053;SDS011;59918;51.280;7.950;2022-10-22T06:49:09;10.57;;;6.53;;
72053;SDS011;59918;51.280;7.950;2022-10-22T06:51:36;14.23;;;5.72;;
72053;SDS011;59918;51.280;7.950;2022-10-22T06:54:02;6.80;;;5.85;;
72053;SDS011;59918;51.280;7.950;2022-10-22T06:56:29;12.10;;;5.82;;
72053;SDS011;59918;51.280;7.950;2022-10-22T06:58:55;11.73;;;6.90;;
72053;SDS011;59918;51.280;7.950;2022-10-22T07:01:25;13.63;;;6.20;;
72053;SDS011;59918;51.280;7.950;2022-10-22T07:03:52;9.80;;;6.57;;
72053;SDS011;59918;51.280;7.950;2022-10-22T07:06:19;13.88;;;6.47;;
72053;SDS011;59918;51.280;7.950;2022-10-22T07:08:45;11.35;;;6.40;;
72053;SDS011;59918;51.280;7.950;2022-10-22T07:11:11;7.93;;;6.38;;
72053;SDS011;59918;51.280;7.950;2022-10-22T07:13:37;8.10;;;6.80;;
72053;SDS011;59918;51.280;7.950;2022-10-22T07:16:07;8.88;;;7.53;;
72053;SDS011;59918;51.280;7.950;2022-10-22T07:18:33;9.50;;;7.00;;
72053;SDS011;59918;51.280;7.950;2022-10-22T07:20:59;10.63;;;6.68;;
72053;SDS011;59918;51.280;7.950;2022-10-22T07:23:24;10.57;;;6.68;;
72053;SDS011;59918;51.280;7.950;2022-10-22T07:25:50;8.30;;;5.97;;
72053;SDS011;59918;51.280;7.950;2022-10-22T07:28:16;11.00;;;6.28;;
72053;SDS011;59918;51.280;7.950;2022-10-22T07:30:41;16.30;;;6.00;;
72053;SDS011;59918;51.280;7.950;2022-10-22T07:33:07;10.48;;;6.00;;
72053;SDS011;59918;51.280;7.950;2022-10-22T07:35:33;10.45;;;5.95;;
72053;SDS011;59918;51.280;7.950;2022-10-22T07:37:59;6.95;;;5.93;;
72053;SDS011;59918;51.280;7.950;2022-10-22T07:40:24;19.08;;;5.95;;
72053;SDS011;59918;51.280;7.950;2022-10-22T07:42:49;9.38;;;5.43;;
72053;SDS011;59918;51.280;7.950;2022-10-22T07:45:15;8.77;;;5.28;;
72053;SDS011;59918;51.280;7.950;2022-10-22T07:47:40;7.70;;;5.18;;
72053;SDS011;59918;51.280;7.950;2022-10-22T07:50:05;11.93;;;5.55;;
72053;SDS011;59918;51.280;7.950;2022-10-22T07:52:31;8.65;;;4.90;;
72053;SDS011;59918;51.280;7.950;2022-10-22T07:54:56;8.52;;;5.20;;
72053;SDS011;59918;51.280;7.950;2022-10-22T07:57:21;10.63;;;4.97;;
72053;SDS011;59918;51.280;7.950;2022-10-22T07:59:47;9.32;;;4.72;;
72053;SDS011;59918;51.280;7.950;2022-10-22T08:02:12;6.22;;;4.80;;
72053;SDS011;59918;51.280;7.950;2022-10-22T08:04:37;6.10;;;4.43;;
72053;SDS011;59918;51.280;7.950;2022-10-22T08:07:03;9.82;;;5.10;;
72053;SDS011;59918;51.280;7.950;2022-10-22T08:09:30;7.60;;;4.40;;
72053;SDS011;59918;51.280;7.950;2022-10-22T08:11:56;5.30;;;4.43;;
72053;SDS011;59918;51.280;7.950;2022-10-22T08:14:21;7.05;;;4.10;;
72053;SDS011;59918;51.280;7.950;2022-10-22T08:16:46;8.05;;;4.13;;
72053;SDS011;59918;51.280;7.950;2022-10-22T08:19:11;12.63;;;4.15;;
72053;SDS011;59918;51.280;7.950;2022-10-22T08:21:37;9.48;;;4.90;;
72053;SDS011;59918;51.280;7.950;2022-10-22T08:24:02;7.50;;;4.03;;
72053;SDS011;59918;51.280;7.950;2022-10-22T08:26:28;7.93;;;4.15;;
72053;SDS011;59918;51.280;7.950;2022-10-22T08:28:53;8.82;;;4.30;;
72053;SDS011;59918;51.280;7.950;2022-10-22T08:31:18;7.10;;;3.90;;
72053;SDS011;59918;51.280;7.950;2022-10-22T08:33:44;5.63;;;3.95;;
72053;SDS011;59918;51.280;7.950;2022-10-22T08:36:09;9.98;;;4.20;;
72053;SDS011;59918;51.280;7.950;2022-10-22T08:38:34;10.32;;;4.18;;
72053;SDS011;59918;51.280;7.950;2022-10-22T08:41:04;10.57;;;4.07;;
72053;SDS011;59918;51.280;7.950;2022-10-22T08:49:00;7.78;;;4.28;;
72053;SDS011;59918;51.280;7.950;2022-10-22T08:51:32;8.55;;;3.78;;
72053;SDS011;59918;51.280;7.950;2022-10-22T08:56:46;9.23;;;3.47;;
72053;SDS011;59918;51.280;7.950;2022-10-22T08:59:25;9.73;;;3.53;;
72053;SDS011;59918;51.280;7.950;2022-10-22T09:04:52;8.15;;;3.30;;
72053;SDS011;59918;51.280;7.950;2022-10-22T09:07:28;6.70;;;3.10;;
72053;SDS011;59918;51.280;7.950;2022-10-22T09:09:53;7.43;;;3.03;;
72053;SDS011;59918;51.280;7.950;2022-10-22T09:12:21;5.60;;;2.30;;
72053;SDS011;59918;51.280;7.950;2022-10-22T09:14:50;7.18;;;2.38;;
72053;SDS011;59918;51.280;7.950;2022-10-22T09:17:19;10.40;;;2.80;;
72053;SDS011;59918;51.280;7.950;2022-10-22T09:22:54;7.63;;;2.20;;
72053;SDS011;59918;51.280;7.950;2022-10-22T09:25:30;7.35;;;2.80;;
72053;SDS011;59918;51.280;7.950;2022-10-22T09:27:59;6.78;;;2.20;;
72053;SDS011;59918;51.280;7.950;2022-10-22T09:30:28;5.22;;;2.58;;
72053;SDS011;59918;51.280;7.950;2022-10-22T09:33:05;9.43;;;2.45;;
72053;SDS011;59918;51.280;7.950;2022-10-22T09:35:32;6.78;;;2.45;;
72053;SDS011;59918;51.280;7.950;2022-10-22T09:38:01;8.10;;;2.85;;
72053;SDS011;59918;51.280;7.950;2022-10-22T09:40:41;9.95;;;3.03;;
72053;SDS011;59918;51.280;7.950;2022-10-22T09:43:11;7.30;;;2.40;;
72053;SDS011;59918;51.280;7.950;2022-10-22T09:45:38;10.80;;;2.10;;
72053;SDS011;59918;51.280;7.950;2022-10-22T09:48:10;3.53;;;1.70;;
72053;SDS011;59918;51.280;7.950;2022-10-22T09:53:13;8.98;;;3.00;;
72053;SDS011;59918;51.280;7.950;2022-10-22T09:55:50;6.50;;;2.03;;
72053;SDS011;59918;51.280;7.950;2022-10-22T09:58:17;8.75;;;2.40;;
72053;SDS011;59918;51.280;7.950;2022-10-22T10:00:44;5.18;;;2.33;;
72053;SDS011;59918;51.280;7.950;2022-10-22T10:03:14;8.13;;;2.22;;
72053;SDS011;59918;51.280;7.950;2022-10-22T10:08:11;10.88;;;1.90;;
72053;SDS011;59918;51.280;7.950;2022-10-22T10:18:35;8.98;;;2.72;;
72053;SDS011;59918;51.280;7.950;2022-10-22T10:21:44;8.38;;;2.38;;
72053;SDS011;59918;51.280;7.950;2022-10-22T10:43:34;5.50;;;1.60;;
72053;SDS011;59918;51.280;7.950;2022-10-22T10:46:16;4.70;;;1.65;;
72053;SDS011;59918;51.280;7.950;2022-10-22T10:56:54;5.47;;;1.63;;
72053;SDS011;59918;51.280;7.950;2022-10-22T11:07:55;7.88;;;2.08;;
72053;SDS011;59918;51.280;7.950;2022-10-22T11:10:28;7.13;;;1.63;;
72053;SDS011;59918;51.280;7.950;2022-10-22T11:13:05;8.25;;;1.60;;
72053;SDS011;59918;51.280;7.950;2022-10-22T11:15:37;8.98;;;3.25;;
72053;SDS011;59918;51.280;7.950;2022-10-22T11:18:11;10.45;;;1.50;;
72053;SDS011;59918;51.280;7.950;2022-10-22T11:23:13;3.33;;;1.63;;
72053;SDS011;59918;51.280;7.950;2022-10-22T11:25:46;5.90;;;1.50;;
72053;SDS011;59918;51.280;7.950;2022-10-22T11:28:26;4.40;;;1.58;;
72053;SDS011;59918;51.280;7.950;2022-10-22T11:31:12;3.80;;;1.45;;
72053;SDS011;59918;51.280;7.950;2022-10-22T11:33:41;8.45;;;1.40;;
72053;SDS011;59918;51.280;7.950;2022-10-22T11:36:14;6.70;;;1.35;;
72053;SDS011;59918;51.280;7.950;2022-10-22T11:38:42;7.80;;;1.58;;
72053;SDS011;59918;51.280;7.950;2022-10-22T11:41:15;8.05;;;1.40;;
72053;SDS011;59918;51.280;7.950;2022-10-22T11:48:59;6.87;;;5.27;;
72053;SDS011;59918;51.280;7.950;2022-10-22T11:54:23;10.55;;;1.55;;
72053;SDS011;59918;51.280;7.950;2022-10-22T11:56:50;7.18;;;1.40;;
72053;SDS011;59918;51.280;7.950;2022-10-22T11:59:33;3.83;;;1.20;;
72053;SDS011;59918;51.280;7.950;2022-10-22T12:02:19;5.10;;;1.60;;
72053;SDS011;59918;51.280;7.950;2022-10-22T12:04:46;3.72;;;1.35;;
72053;SDS011;59918;51.280;7.950;2022-10-22T12:09:57;6.68;;;1.83;;
72053;SDS011;59918;51.280;7.950;2022-10-22T12:12:25;9.13;;;2.75;;
72053;SDS011;59918;51.280;7.950;2022-10-22T12:14:55;8.77;;;1.25;;
72053;SDS011;59918;51.280;7.950;2022-10-22T12:17:22;11.47;;;1.90;;
72053;SDS011;59918;51.280;7.950;2022-10-22T12:19:50;2.38;;;1.08;;
72053;SDS011;59918;51.280;7.950;2022-10-22T12:24:51;7.10;;;2.00;;
72053;SDS011;59918;51.280;7.950;2022-10-22T12:29:45;4.85;;;1.23;;
72053;SDS011;59918;51.280;7.950;2022-10-22T12:32:13;3.30;;;1.13;;
72053;SDS011;59918;51.280;7.950;2022-10-22T12:34:46;3.40;;;1.20;;
72053;SDS011;59918;51.280;7.950;2022-10-22T12:37:14;6.53;;;1.35;;
72053;SDS011;59918;51.280;7.950;2022-10-22T12:39:40;6.60;;;2.17;;
72053;SDS011;59918;51.280;7.950;2022-10-22T12:42:07;4.88;;;1.48;;
72053;SDS011;59918;51.280;7.950;2022-10-22T12:44:37;7.88;;;1.80;;
72053;SDS011;59918;51.280;7.950;2022-10-22T12:47:02;4.63;;;1.70;;
72053;SDS011;59918;51.280;7.950;2022-10-22T12:49:32;5.45;;;1.50;;
72053;SDS011;59918;51.280;7.950;2022-10-22T12:52:02;10.80;;;1.98;;
72053;SDS011;59918;51.280;7.950;2022-10-22T12:54:31;5.60;;;2.40;;
72053;SDS011;59918;51.280;7.950;2022-10-22T12:56:58;6.00;;;2.22;;
72053;SDS011;59918;51.280;7.950;2022-10-22T12:59:24;4.40;;;2.25;;
72053;SDS011;59918;51.280;7.950;2022-10-22T13:01:53;6.57;;;1.80;;
72053;SDS011;59918;51.280;7.950;2022-10-22T13:06:51;4.25;;;1.90;;
72053;SDS011;59918;51.280;7.950;2022-10-22T13:09:36;2.70;;;1.50;;
72053;SDS011;59918;51.280;7.950;2022-10-22T13:12:06;7.93;;;2.00;;
72053;SDS011;59918;51.280;7.950;2022-10-22T13:14:34;5.75;;;2.00;;
72053;SDS011;59918;51.280;7.950;2022-10-22T13:17:04;6.93;;;1.80;;
72053;SDS011;59918;51.280;7.950;2022-10-22T13:19:36;7.25;;;1.70;;
72053;SDS011;59918;51.280;7.950;2022-10-22T13:25:04;5.25;;;2.30;;
72053;SDS011;59918;51.280;7.950;2022-10-22T13:30:24;3.50;;;1.35;;
72053;SDS011;59918;51.280;7.950;2022-10-22T13:33:01;3.15;;;1.38;;
72053;SDS011;59918;51.280;7.950;2022-10-22T13:35:29;3.65;;;1.38;;
72053;SDS011;59918;51.280;7.950;2022-10-22T13:37:56;4.53;;;1.55;;
72053;SDS011;59918;51.280;7.950;2022-10-22T13:40:21;4.00;;;1.10;;
72053;SDS011;59918;51.280;7.950;2022-10-22T13:42:47;8.27;;;1.40;;
72053;SDS011;59918;51.280;7.950;2022-10-22T13:45:12;9.43;;;1.20;;
72053;SDS011;59918;51.280;7.950;2022-10-22T13:47:38;7.50;;;1.38;;
72053;SDS011;59918;51.280;7.950;2022-10-22T13:50:06;4.82;;;0.90;;
72053;SDS011;59918;51.280;7.950;2022-10-22T13:52:42;3.72;;;0.80;;
72053;SDS011;59918;51.280;7.950;2022-10-22T13:55:14;2.88;;;0.80;;
72053;SDS011;59918;51.280;7.950;2022-10-22T13:57:40;2.15;;;0.70;;
72053;SDS011;59918;51.280;7.950;2022-10-22T14:00:06;4.32;;;0.90;;
72053;SDS011;59918;51.280;7.950;2022-10-22T14:02:35;2.85;;;0.70;;
72053;SDS011;59918;51.280;7.950;2022-10-22T14:05:00;4.75;;;0.70;;
72053;SDS011;59918;51.280;7.950;2022-10-22T14:07:25;2.08;;;0.77;;
72053;SDS011;59918;51.280;7.950;2022-10-22T14:09:51;4.35;;;0.82;;
72053;SDS011;59918;51.280;7.950;2022-10-22T14:12:16;2.42;;;0.80;;
72053;SDS011;59918;51.280;7.950;2022-10-22T14:14:44;1.67;;;0.40;;
72053;SDS011;59918;51.280;7.950;2022-10-22T14:17:13;2.90;;;0.43;;
72053;SDS011;59918;51.280;7.950;2022-10-22T14:19:40;2.72;;;0.70;;
72053;SDS011;59918;51.280;7.950;2022-10-22T14:22:10;2.90;;;0.70;;
72053;SDS011;59918;51.280;7.950;2022-10-22T14:24:47;3.70;;;0.63;;
72053;SDS011;59918;51.280;7.950;2022-10-22T14:27:15;7.70;;;0.82;;
72053;SDS011;59918;51.280;7.950;2022-10-22T14:29:40;3.03;;;0.82;;
72053;SDS011;59918;51.280;7.950;2022-10-22T14:32:09;5.63;;;0.57;;
72053;SDS011;59918;51.280;7.950;2022-10-22T14:34:36;3.90;;;0.82;;
72053;SDS011;59918;51.280;7.950;2022-10-22T14:37:01;2.65;;;0.63;;
72053;SDS011;59918;51.280;7.950;2022-10-22T14:39:27;4.60;;;1.02;;
72053;SDS011;59918;51.280;7.950;2022-10-22T14:41:52;1.30;;;0.57;;
72053;SDS011;59918;51.280;7.950;2022-10-22T14:44:17;6.22;;;0.80;;
72053;SDS011;59918;51.280;7.950;2022-10-22T14:46:45;2.83;;;0.50;;
72053;SDS011;59918;51.280;7.950;2022-10-22T14:49:10;2.70;;;0.85;;
72053;SDS011;59918;51.280;7.950;2022-10-22T14:51:36;6.68;;;0.70;;
72053;SDS011;59918;51.280;7.950;2022-10-22T14:54:01;5.97;;;0.70;;
72053;SDS011;59918;51.280;7.950;2022-10-22T14:56:26;2.75;;;1.10;;
72053;SDS011;59918;51.280;7.950;2022-10-22T14:58:51;3.05;;;1.00;;
72053;SDS011;59918;51.280;7.950;2022-10-22T15:01:17;4.40;;;0.70;;
72053;SDS011;59918;51.280;7.950;2022-10-22T15:03:42;3.20;;;1.00;;
72053;SDS011;59918;51.280;7.950;2022-10-22T15:06:10;5.13;;;0.85;;
72053;SDS011;59918;51.280;7.950;2022-10-22T15:08:35;4.32;;;0.90;;
72053;SDS011;59918;51.280;7.950;2022-10-22T15:11:02;3.03;;;1.00;;
72053;SDS011;59918;51.280;7.950;2022-10-22T15:13:29;8.48;;;0.93;;
72053;SDS011;59918;51.280;7.950;2022-10-22T15:15:55;7.53;;;1.10;;
72053;SDS011;59918;51.280;7.950;2022-10-22T15:18:21;4.85;;;1.10;;
72053;SDS011;59918;51.280;7.950;2022-10-22T15:20:53;7.72;;;1.00;;
72053;SDS011;59918;51.280;7.950;2022-10-22T15:23:19;4.35;;;1.25;;
72053;SDS011;59918;51.280;7.950;2022-10-22T15:25:44;3.78;;;0.73;;
72053;SDS011;59918;51.280;7.950;2022-10-22T15:28:09;2.83;;;0.65;;
72053;SDS011;59918;51.280;7.950;2022-10-22T15:30:34;3.80;;;0.80;;
72053;SDS011;59918;51.280;7.950;2022-10-22T15:33:00;7.05;;;0.82;;
72053;SDS011;59918;51.280;7.950;2022-10-22T15:35:26;3.80;;;0.80;;
72053;SDS011;59918;51.280;7.950;2022-10-22T15:37:51;5.93;;;1.15;;
72053;SDS011;59918;51.280;7.950;2022-10-22T15:40:16;5.97;;;0.98;;
72053;SDS011;59918;51.280;7.950;2022-10-22T15:42:42;4.47;;;0.90;;
72053;SDS011;59918;51.280;7.950;2022-10-22T15:45:07;9.73;;;1.13;;
72053;SDS011;59918;51.280;7.950;2022-10-22T15:47:32;8.73;;;1.27;;
72053;SDS011;59918;51.280;7.950;2022-10-22T15:49:58;4.68;;;0.80;;
72053;SDS011;59918;51.280;7.950;2022-10-22T15:52:23;4.78;;;0.80;;
72053;SDS011;59918;51.280;7.950;2022-10-22T15:54:51;2.90;;;0.90;;
72053;SDS011;59918;51.280;7.950;2022-10-22T15:57:18;7.30;;;1.10;;
72053;SDS011;59918;51.280;7.950;2022-10-22T15:59:43;5.40;;;0.93;;
72053;SDS011;59918;51.280;7.950;2022-10-22T16:02:11;8.82;;;1.45;;
72053;SDS011;59918;51.280;7.950;2022-10-22T16:04:36;3.83;;;0.90;;
72053;SDS011;59918;51.280;7.950;2022-10-22T16:07:02;5.38;;;0.98;;
72053;SDS011;59918;51.280;7.950;2022-10-22T16:09:27;7.65;;;1.40;;
72053;SDS011;59918;51.280;7.950;2022-10-22T16:11:53;6.70;;;2.10;;
72053;SDS011;59918;51.280;7.950;2022-10-22T16:14:19;9.27;;;1.80;;
72053;SDS011;59918;51.280;7.950;2022-10-22T16:16:48;5.90;;;1.63;;
72053;SDS011;59918;51.280;7.950;2022-10-22T16:19:18;6.93;;;1.30;;
72053;SDS011;59918;51.280;7.950;2022-10-22T16:21:44;9.68;;;1.60;;
72053;SDS011;59918;51.280;7.950;2022-10-22T16:24:10;8.50;;;1.90;;
72053;SDS011;59918;51.280;7.950;2022-10-22T16:26:36;6.55;;;1.20;;
72053;SDS011;59918;51.280;7.950;2022-10-22T16:29:01;5.07;;;0.77;;
72053;SDS011;59918;51.280;7.950;2022-10-22T16:31:27;11.70;;;1.13;;
72053;SDS011;59918;51.280;7.950;2022-10-22T16:33:52;11.40;;;1.00;;
72053;SDS011;59918;51.280;7.950;2022-10-22T16:36:21;5.53;;;1.15;;
72053;SDS011;59918;51.280;7.950;2022-10-22T16:38:47;5.20;;;1.27;;
72053;SDS011;59918;51.280;7.950;2022-10-22T16:41:13;8.73;;;1.27;;
72053;SDS011;59918;51.280;7.950;2022-10-22T16:43:44;6.22;;;1.20;;
72053;SDS011;59918;51.280;7.950;2022-10-22T16:46:11;9.80;;;2.75;;
72053;SDS011;59918;51.280;7.950;2022-10-22T16:48:36;3.78;;;1.20;;
72053;SDS011;59918;51.280;7.950;2022-10-22T16:51:05;11.40;;;4.10;;
72053;SDS011;59918;51.280;7.950;2022-10-22T16:53:32;6.57;;;2.65;;